M I D A S
Marine Information and Data Acquisition System
Tripno 1614 of the Zeeleeuw from 2008-11-24 08:15:56 to 2008-11-24 12:17:43
Back to CruiseResearch ActivitiesStationsMapUnderway DataData graphs

EquipmentUnitsComment
TimeDGPSUTC
LatitudeDGPSDM.mWGS84
LongitudeDGPSDM.mWGS84
TemperatureSBE03/SBE38deg celciusITS90
ConductivitySBE21S/mITS90
SalinitySBE21 Practical Salinity Units
ChlorophylAChelsea fluorimeterg/lCalibrated in Aceton
Missing or incorrect values are displayed as -999
Sea surface data collected by the RV Zeeleeuw from 2008-11-24 08:15:56 to 2008-11-24 12:17:43
                                                                                    Next 1000 lines
Time Latitude Longitude Temperature Conductivity Salinity ChlorophylA
2008-11-24 08:16:10 51°13.623 2°56.046 -999 -999 -999 -999
2008-11-24 08:16:20 51°13.623 2°56.047 -999 -999 -999 -999
2008-11-24 08:16:30 51°13.623 2°56.048 -999 -999 -999 -999
2008-11-24 08:16:40 51°13.623 2°56.049 -999 -999 -999 -999
2008-11-24 08:16:50 51°13.623 2°56.048 -999 -999 -999 -999
2008-11-24 08:17:00 51°13.622 2°56.049 -999 -999 -999 -999
2008-11-24 08:17:10 51°13.622 2°56.048 -999 -999 -999 -999
2008-11-24 08:17:20 51°13.622 2°56.048 -999 -999 -999 -999
2008-11-24 08:17:30 51°13.622 2°56.048 -999 -999 -999 -999
2008-11-24 08:17:40 51°13.622 2°56.048 -999 -999 -999 -999
2008-11-24 08:17:50 51°13.621 2°56.048 -999 -999 -999 -999
2008-11-24 08:18:00 51°13.622 2°56.047 -999 -999 -999 -999
2008-11-24 08:18:10 51°13.623 2°56.043 -999 -999 -999 -999
2008-11-24 08:18:20 51°13.625 2°56.037 -999 -999 -999 -999
2008-11-24 08:18:30 51°13.627 2°56.028 -999 -999 -999 -999
2008-11-24 08:18:40 51°13.63 2°56.016 -999 -999 -999 -999
2008-11-24 08:18:50 51°13.634 2°56.004 -999 -999 -999 -999
2008-11-24 08:19:00 51°13.638 2°55.989 -999 -999 -999 -999
2008-11-24 08:19:10 51°13.642 2°55.974 -999 -999 -999 -999
2008-11-24 08:19:20 51°13.645 2°55.96 -999 -999 -999 -999
2008-11-24 08:19:30 51°13.646 2°55.951 -999 -999 -999 -999
2008-11-24 08:19:40 51°13.647 2°55.948 -999 -999 -999 -999
2008-11-24 08:19:50 51°13.647 2°55.946 -999 -999 -999 -999
2008-11-24 08:20:00 51°13.648 2°55.941 -999 -999 -999 -999
2008-11-24 08:20:10 51°13.65 2°55.933 -999 -999 -999 -999
2008-11-24 08:20:20 51°13.653 2°55.923 -999 -999 -999 -999
2008-11-24 08:20:30 51°13.657 2°55.912 -999 -999 -999 -999
2008-11-24 08:20:40 51°13.662 2°55.899 -999 -999 -999 -999
2008-11-24 08:20:50 51°13.668 2°55.887 -999 -999 -999 -999
2008-11-24 08:21:00 51°13.674 2°55.874 -999 -999 -999 -999
2008-11-24 08:21:10 51°13.68 2°55.86 -999 -999 -999 -999
2008-11-24 08:21:20 51°13.687 2°55.847 -999 -999 -999 -999
2008-11-24 08:21:30 51°13.693 2°55.833 -999 -999 -999 -999
2008-11-24 08:21:40 51°13.7 2°55.818 -999 -999 -999 -999
2008-11-24 08:21:50 51°13.706 2°55.802 -999 -999 -999 -999
2008-11-24 08:22:00 51°13.711 2°55.787 -999 -999 -999 -999
2008-11-24 08:22:10 51°13.714 2°55.772 -999 -999 -999 -999
2008-11-24 08:22:20 51°13.718 2°55.759 -999 -999 -999 -999
2008-11-24 08:22:30 51°13.72 2°55.748 -999 -999 -999 -999
2008-11-24 08:22:40 51°13.721 2°55.74 -999 -999 -999 -999
2008-11-24 08:22:50 51°13.722 2°55.736 -999 -999 -999 -999
2008-11-24 08:23:00 51°13.723 2°55.739 -999 -999 -999 -999
2008-11-24 08:23:10 51°13.724 2°55.743 -999 -999 -999 -999
2008-11-24 08:23:20 51°13.725 2°55.743 -999 -999 -999 -999
2008-11-24 08:23:30 51°13.725 2°55.74 -999 -999 -999 -999
2008-11-24 08:23:40 51°13.723 2°55.734 -999 -999 -999 -999
2008-11-24 08:23:50 51°13.721 2°55.729 -999 -999 -999 -999
2008-11-24 08:24:00 51°13.721 2°55.727 -999 -999 -999 -999
2008-11-24 08:24:10 51°13.724 2°55.73 -999 -999 -999 -999
2008-11-24 08:24:20 51°13.727 2°55.731 -999 -999 -999 -999
2008-11-24 08:24:30 51°13.728 2°55.732 -999 -999 -999 -999
2008-11-24 08:24:40 51°13.727 2°55.73 -999 -999 -999 -999
2008-11-24 08:24:50 51°13.722 2°55.73 -999 -999 -999 -999
2008-11-24 08:25:00 51°13.718 2°55.729 -999 -999 -999 -999
2008-11-24 08:25:10 51°13.717 2°55.728 -999 -999 -999 -999
2008-11-24 08:25:20 51°13.72 2°55.725 -999 -999 -999 -999
2008-11-24 08:25:30 51°13.727 2°55.72 -999 -999 -999 -999
2008-11-24 08:25:40 51°13.738 2°55.71 -999 -999 -999 -999
2008-11-24 08:25:50 51°13.751 2°55.698 -999 -999 -999 -999
2008-11-24 08:26:00 51°13.767 2°55.684 -999 -999 -999 -999
2008-11-24 08:26:10 51°13.785 2°55.669 -999 -999 -999 -999
2008-11-24 08:26:20 51°13.804 2°55.653 -999 -999 -999 -999
2008-11-24 08:26:30 51°13.824 2°55.638 -999 -999 -999 -999
2008-11-24 08:26:40 51°13.845 2°55.621 -999 -999 -999 -999
2008-11-24 08:26:50 51°13.867 2°55.605 -999 -999 -999 -999
2008-11-24 08:27:00 51°13.89 2°55.589 -999 -999 -999 -999
2008-11-24 08:27:10 51°13.913 2°55.571 -999 -999 -999 -999
2008-11-24 08:27:20 51°13.936 2°55.554 -999 -999 -999 -999
2008-11-24 08:27:30 51°13.959 2°55.536 -999 -999 -999 -999
2008-11-24 08:27:40 51°13.982 2°55.519 -999 -999 -999 -999
2008-11-24 08:27:50 51°14.006 2°55.501 -999 -999 -999 -999
2008-11-24 08:28:00 51°14.03 2°55.484 -999 -999 -999 -999
2008-11-24 08:28:10 51°14.054 2°55.466 -999 -999 -999 -999
2008-11-24 08:28:20 51°14.077 2°55.448 -999 -999 -999 -999
2008-11-24 08:28:30 51°14.099 2°55.431 -999 -999 -999 -999
2008-11-24 08:28:40 51°14.125 2°55.41 -999 -999 -999 -999
2008-11-24 08:28:50 51°14.15 2°55.389 -999 -999 -999 -999
2008-11-24 08:29:00 51°14.172 2°55.369 -999 -999 -999 -999
2008-11-24 08:29:10 51°14.198 2°55.341 -999 -999 -999 -999
2008-11-24 08:29:20 51°14.222 2°55.314 -999 -999 -999 -999
2008-11-24 08:29:30 51°14.244 2°55.285 -999 -999 -999 -999
2008-11-24 08:29:40 51°14.265 2°55.251 -999 -999 -999 -999
2008-11-24 08:29:50 51°14.285 2°55.217 -999 -999 -999 -999
2008-11-24 08:30:00 51°14.305 2°55.18 -999 -999 -999 -999
2008-11-24 08:30:10 51°14.326 2°55.144 -999 -999 -999 -999
2008-11-24 08:30:20 51°14.346 2°55.109 -999 -999 -999 -999
2008-11-24 08:30:30 51°14.367 2°55.075 -999 -999 -999 -999
2008-11-24 08:30:40 51°14.39 2°55.042 -999 -999 -999 -999
2008-11-24 08:30:50 51°14.412 2°55.01 -999 -999 -999 -999
2008-11-24 08:31:00 51°14.428 2°54.973 -999 -999 -999 -999
2008-11-24 08:31:10 51°14.44 2°54.933 -999 -999 -999 -999
2008-11-24 08:31:20 51°14.448 2°54.889 -999 -999 -999 -999
2008-11-24 08:31:30 51°14.45 2°54.846 -999 -999 -999 -999
2008-11-24 08:31:40 51°14.447 2°54.802 -999 -999 -999 -999
2008-11-24 08:31:50 51°14.439 2°54.76 -999 -999 -999 -999
2008-11-24 08:32:00 51°14.425 2°54.721 -999 -999 -999 -999
2008-11-24 08:32:10 51°14.411 2°54.681 -999 -999 -999 -999
2008-11-24 08:32:20 51°14.397 2°54.64 -999 -999 -999 -999
2008-11-24 08:32:30 51°14.382 2°54.6 -999 -999 -999 -999
2008-11-24 08:32:40 51°14.365 2°54.561 -999 -999 -999 -999
2008-11-24 08:32:50 51°14.349 2°54.523 -999 -999 -999 -999
2008-11-24 08:33:00 51°14.333 2°54.483 -999 -999 -999 -999
2008-11-24 08:33:10 51°14.318 2°54.444 -999 -999 -999 -999
2008-11-24 08:33:20 51°14.306 2°54.402 -999 -999 -999 -999
2008-11-24 08:33:30 51°14.293 2°54.361 -999 -999 -999 -999
2008-11-24 08:33:40 51°14.28 2°54.32 -999 -999 -999 -999
2008-11-24 08:33:50 51°14.267 2°54.278 -999 -999 -999 -999
2008-11-24 08:34:00 51°14.253 2°54.237 -999 -999 -999 -999
2008-11-24 08:34:10 51°14.239 2°54.197 -999 -999 -999 -999
2008-11-24 08:34:20 51°14.224 2°54.158 -999 -999 -999 -999
2008-11-24 08:34:30 51°14.21 2°54.118 -999 -999 -999 -999
2008-11-24 08:34:40 51°14.195 2°54.079 -999 -999 -999 -999
2008-11-24 08:34:50 51°14.18 2°54.04 -999 -999 -999 -999
2008-11-24 08:35:00 51°14.167 2°54.006 -999 -999 -999 -999
2008-11-24 08:35:10 51°14.15 2°53.963 -999 -999 -999 -999
2008-11-24 08:35:20 51°14.135 2°53.925 -999 -999 -999 -999
2008-11-24 08:35:30 51°14.12 2°53.885 -999 -999 -999 -999
2008-11-24 08:35:40 51°14.106 2°53.845 -999 -999 -999 -999
2008-11-24 08:35:50 51°14.093 2°53.805 -999 -999 -999 -999
2008-11-24 08:36:00 51°14.08 2°53.765 -999 -999 -999 -999
2008-11-24 08:36:10 51°14.067 2°53.724 -999 -999 -999 -999
2008-11-24 08:36:20 51°14.055 2°53.683 -999 -999 -999 -999
2008-11-24 08:36:30 51°14.041 2°53.643 -999 -999 -999 -999
2008-11-24 08:36:40 51°14.03 2°53.601 -999 -999 -999 -999
2008-11-24 08:36:50 51°14.018 2°53.559 -999 -999 -999 -999
2008-11-24 08:37:00 51°14.007 2°53.517 -999 -999 -999 -999
2008-11-24 08:37:10 51°13.996 2°53.474 -999 -999 -999 -999
2008-11-24 08:37:20 51°13.984 2°53.427 -999 -999 -999 -999
2008-11-24 08:37:30 51°13.973 2°53.389 -999 -999 -999 -999
2008-11-24 08:37:40 51°13.963 2°53.345 -999 -999 -999 -999
2008-11-24 08:37:50 51°13.953 2°53.307 -999 -999 -999 -999
2008-11-24 08:38:00 51°13.94 2°53.261 -999 -999 -999 -999
2008-11-24 08:38:10 51°13.929 2°53.217 -999 -999 -999 -999
2008-11-24 08:38:20 51°13.918 2°53.174 -999 -999 -999 -999
2008-11-24 08:38:30 51°13.908 2°53.136 -999 -999 -999 -999
2008-11-24 08:38:40 51°13.895 2°53.089 -999 -999 -999 -999
2008-11-24 08:38:50 51°13.884 2°53.046 -999 -999 -999 -999
2008-11-24 08:39:00 51°13.872 2°53.004 -999 -999 -999 -999
2008-11-24 08:39:10 51°13.861 2°52.963 -999 -999 -999 -999
2008-11-24 08:39:20 51°13.851 2°52.92 -999 -999 -999 -999
2008-11-24 08:39:30 51°13.84 2°52.877 -999 -999 -999 -999
2008-11-24 08:39:40 51°13.829 2°52.833 -999 -999 -999 -999
2008-11-24 08:39:50 51°13.818 2°52.791 -999 -999 -999 -999
2008-11-24 08:40:00 51°13.807 2°52.748 -999 -999 -999 -999
2008-11-24 08:40:10 51°13.797 2°52.71 -999 -999 -999 -999
2008-11-24 08:40:20 51°13.781 2°52.66 -999 -999 -999 -999
2008-11-24 08:40:30 51°13.769 2°52.624 -999 -999 -999 -999
2008-11-24 08:40:40 51°13.755 2°52.582 -999 -999 -999 -999
2008-11-24 08:40:50 51°13.741 2°52.543 -999 -999 -999 -999
2008-11-24 08:41:00 51°13.727 2°52.502 -999 -999 -999 -999
2008-11-24 08:41:10 51°13.713 2°52.461 -999 -999 -999 -999
2008-11-24 08:41:20 51°13.699 2°52.421 -999 -999 -999 -999
2008-11-24 08:41:30 51°13.684 2°52.376 -999 -999 -999 -999
2008-11-24 08:41:40 51°13.671 2°52.341 -999 -999 -999 -999
2008-11-24 08:41:50 51°13.656 2°52.301 -999 -999 -999 -999
2008-11-24 08:42:00 51°13.642 2°52.261 -999 -999 -999 -999
2008-11-24 08:42:10 51°13.626 2°52.217 -999 -999 -999 -999
2008-11-24 08:42:20 51°13.613 2°52.181 -999 -999 -999 -999
2008-11-24 08:42:30 51°13.599 2°52.142 -999 -999 -999 -999
2008-11-24 08:42:40 51°13.585 2°52.101 -999 -999 -999 -999
2008-11-24 08:42:50 51°13.571 2°52.06 -999 -999 -999 -999
2008-11-24 08:43:00 51°13.557 2°52.019 -999 -999 -999 -999
2008-11-24 08:43:10 51°13.543 2°51.978 -999 -999 -999 -999
2008-11-24 08:43:20 51°13.53 2°51.942 -999 -999 -999 -999
2008-11-24 08:43:30 51°13.514 2°51.898 -999 -999 -999 -999
2008-11-24 08:43:40 51°13.5 2°51.857 -999 -999 -999 -999
2008-11-24 08:43:50 51°13.486 2°51.816 -999 -999 -999 -999
2008-11-24 08:44:00 51°13.472 2°51.775 -999 -999 -999 -999
2008-11-24 08:44:10 51°13.457 2°51.734 -999 -999 -999 -999
2008-11-24 08:44:20 51°13.444 2°51.692 -999 -999 -999 -999
2008-11-24 08:44:30 51°13.429 2°51.651 -999 -999 -999 -999
2008-11-24 08:44:40 51°13.415 2°51.611 -999 -999 -999 -999
2008-11-24 08:44:50 51°13.4 2°51.569 -999 -999 -999 -999
2008-11-24 08:45:00 51°13.386 2°51.528 -999 -999 -999 -999
2008-11-24 08:45:10 51°13.372 2°51.487 -999 -999 -999 -999
2008-11-24 08:45:20 51°13.359 2°51.445 -999 -999 -999 -999
2008-11-24 08:45:30 51°13.344 2°51.404 -999 -999 -999 -999
2008-11-24 08:45:40 51°13.332 2°51.367 -999 -999 -999 -999
2008-11-24 08:45:50 51°13.317 2°51.322 -999 -999 -999 -999
2008-11-24 08:46:00 51°13.302 2°51.281 -999 -999 -999 -999
2008-11-24 08:46:10 51°13.289 2°51.245 -999 -999 -999 -999
2008-11-24 08:46:20 51°13.273 2°51.2 -999 -999 -999 -999
2008-11-24 08:46:30 51°13.259 2°51.161 -999 -999 -999 -999
2008-11-24 08:46:40 51°13.245 2°51.12 -999 -999 -999 -999
2008-11-24 08:46:50 51°13.23 2°51.081 -999 -999 -999 -999
2008-11-24 08:47:00 51°13.216 2°51.04 -999 -999 -999 -999
2008-11-24 08:47:10 51°13.202 2°50.999 -999 -999 -999 -999
2008-11-24 08:47:20 51°13.188 2°50.958 -999 -999 -999 -999
2008-11-24 08:47:30 51°13.174 2°50.919 -999 -999 -999 -999
2008-11-24 08:47:40 51°13.16 2°50.879 -999 -999 -999 -999
2008-11-24 08:47:50 51°13.146 2°50.839 -999 -999 -999 -999
2008-11-24 08:48:00 51°13.132 2°50.799 -999 -999 -999 -999
2008-11-24 08:48:10 51°13.118 2°50.758 -999 -999 -999 -999
2008-11-24 08:48:20 51°13.104 2°50.718 -999 -999 -999 -999
2008-11-24 08:48:30 51°13.089 2°50.674 -999 -999 -999 -999
2008-11-24 08:48:40 51°13.076 2°50.638 -999 -999 -999 -999
2008-11-24 08:48:50 51°13.062 2°50.598 -999 -999 -999 -999
2008-11-24 08:49:00 51°13.048 2°50.558 -999 -999 -999 -999
2008-11-24 08:49:10 51°13.033 2°50.513 -999 -999 -999 -999
2008-11-24 08:49:20 51°13.021 2°50.477 -999 -999 -999 -999
2008-11-24 08:49:30 51°13.007 2°50.437 -999 -999 -999 -999
2008-11-24 08:49:40 51°12.994 2°50.396 -999 -999 -999 -999
2008-11-24 08:49:50 51°12.981 2°50.355 -999 -999 -999 -999
2008-11-24 08:50:00 51°12.967 2°50.314 -999 -999 -999 -999
2008-11-24 08:50:10 51°12.952 2°50.274 -999 -999 -999 -999
2008-11-24 08:50:20 51°12.939 2°50.233 -999 -999 -999 -999
2008-11-24 08:50:30 51°12.926 2°50.192 -999 -999 -999 -999
2008-11-24 08:50:40 51°12.912 2°50.151 -999 -999 -999 -999
2008-11-24 08:50:50 51°12.899 2°50.114 -999 -999 -999 -999
2008-11-24 08:51:00 51°12.884 2°50.069 -999 -999 -999 -999
2008-11-24 08:51:10 51°12.872 2°50.032 -999 -999 -999 -999
2008-11-24 08:51:20 51°12.856 2°49.987 -999 -999 -999 -999
2008-11-24 08:51:30 51°12.842 2°49.947 -999 -999 -999 -999
2008-11-24 08:51:40 51°12.825 2°49.903 -999 -999 -999 -999
2008-11-24 08:51:50 51°12.812 2°49.867 -999 -999 -999 -999
2008-11-24 08:52:00 51°12.798 2°49.826 -999 -999 -999 -999
2008-11-24 08:52:10 51°12.785 2°49.785 -999 -999 -999 -999
2008-11-24 08:52:20 51°12.772 2°49.75 -999 -999 -999 -999
2008-11-24 08:52:30 51°12.756 2°49.703 -999 -999 -999 -999
2008-11-24 08:52:40 51°12.743 2°49.667 -999 -999 -999 -999
2008-11-24 08:52:50 51°12.73 2°49.626 -999 -999 -999 -999
2008-11-24 08:53:00 51°12.716 2°49.587 -999 -999 -999 -999
2008-11-24 08:53:10 51°12.701 2°49.543 -999 -999 -999 -999
2008-11-24 08:53:20 51°12.688 2°49.507 -999 -999 -999 -999
2008-11-24 08:53:30 51°12.676 2°49.466 -999 -999 -999 -999
2008-11-24 08:53:40 51°12.662 2°49.425 -999 -999 -999 -999
2008-11-24 08:53:50 51°12.649 2°49.385 -999 -999 -999 -999
2008-11-24 08:54:00 51°12.635 2°49.345 -999 -999 -999 -999
2008-11-24 08:54:10 51°12.621 2°49.304 -999 -999 -999 -999
2008-11-24 08:54:20 51°12.608 2°49.264 -999 -999 -999 -999
2008-11-24 08:54:30 51°12.594 2°49.224 -999 -999 -999 -999
2008-11-24 08:54:40 51°12.58 2°49.185 -999 -999 -999 -999
2008-11-24 08:54:50 51°12.565 2°49.14 -999 -999 -999 -999
2008-11-24 08:55:00 51°12.551 2°49.1 -999 -999 -999 -999
2008-11-24 08:55:10 51°12.539 2°49.064 -999 -999 -999 -999
2008-11-24 08:55:20 51°12.525 2°49.023 -999 -999 -999 -999
2008-11-24 08:55:30 51°12.511 2°48.982 -999 -999 -999 -999
2008-11-24 08:55:40 51°12.497 2°48.942 -999 -999 -999 -999
2008-11-24 08:55:50 51°12.483 2°48.902 -999 -999 -999 -999
2008-11-24 08:56:00 51°12.47 2°48.861 -999 -999 -999 -999
2008-11-24 08:56:10 51°12.455 2°48.817 -999 -999 -999 -999
2008-11-24 08:56:20 51°12.443 2°48.781 -999 -999 -999 -999
2008-11-24 08:56:30 51°12.429 2°48.74 -999 -999 -999 -999
2008-11-24 08:56:40 51°12.416 2°48.7 -999 -999 -999 -999
2008-11-24 08:56:50 51°12.4 2°48.656 -999 -999 -999 -999
2008-11-24 08:57:00 51°12.387 2°48.62 -999 -999 -999 -999
2008-11-24 08:57:10 51°12.374 2°48.579 -999 -999 -999 -999
2008-11-24 08:57:20 51°12.36 2°48.539 -999 -999 -999 -999
2008-11-24 08:57:30 51°12.347 2°48.499 -999 -999 -999 -999
2008-11-24 08:57:40 51°12.333 2°48.459 -999 -999 -999 -999
2008-11-24 08:57:50 51°12.32 2°48.418 -999 -999 -999 -999
2008-11-24 08:58:00 51°12.305 2°48.379 -999 -999 -999 -999
2008-11-24 08:58:10 51°12.292 2°48.339 -999 -999 -999 -999
2008-11-24 08:58:20 51°12.279 2°48.3 -999 -999 -999 -999
2008-11-24 08:58:30 51°12.266 2°48.26 -999 -999 -999 -999
2008-11-24 08:58:40 51°12.252 2°48.221 -999 -999 -999 -999
2008-11-24 08:58:50 51°12.239 2°48.182 -999 -999 -999 -999
2008-11-24 08:59:00 51°12.225 2°48.141 -999 -999 -999 -999
2008-11-24 08:59:10 51°12.211 2°48.098 -999 -999 -999 -999
2008-11-24 08:59:20 51°12.198 2°48.062 -999 -999 -999 -999
2008-11-24 08:59:30 51°12.184 2°48.022 -999 -999 -999 -999
2008-11-24 08:59:40 51°12.17 2°47.983 -999 -999 -999 -999
2008-11-24 08:59:50 51°12.157 2°47.943 -999 -999 -999 -999
2008-11-24 09:00:00 51°12.143 2°47.902 -999 -999 -999 -999
2008-11-24 09:00:10 51°12.129 2°47.861 -999 -999 -999 -999
2008-11-24 09:00:20 51°12.114 2°47.816 -999 -999 -999 -999
2008-11-24 09:00:30 51°12.101 2°47.78 -999 -999 -999 -999
2008-11-24 09:00:40 51°12.087 2°47.739 -999 -999 -999 -999
2008-11-24 09:00:50 51°12.072 2°47.696 -999 -999 -999 -999
2008-11-24 09:01:00 51°12.061 2°47.66 -999 -999 -999 -999
2008-11-24 09:01:10 51°12.048 2°47.621 -999 -999 -999 -999
2008-11-24 09:01:20 51°12.035 2°47.581 -999 -999 -999 -999
2008-11-24 09:01:30 51°12.025 2°47.535 -999 -999 -999 -999
2008-11-24 09:01:40 51°12.017 2°47.496 -999 -999 -999 -999
2008-11-24 09:01:50 51°12.011 2°47.452 -999 -999 -999 -999
2008-11-24 09:02:00 51°12.004 2°47.403 -999 -999 -999 -999
2008-11-24 09:02:10 51°11.999 2°47.359 -999 -999 -999 -999
2008-11-24 09:02:20 51°11.993 2°47.319 -999 -999 -999 -999
2008-11-24 09:02:30 51°11.989 2°47.275 -999 -999 -999 -999
2008-11-24 09:02:40 51°11.985 2°47.226 -999 -999 -999 -999
2008-11-24 09:02:50 51°11.981 2°47.186 -999 -999 -999 -999
2008-11-24 09:03:00 51°11.977 2°47.141 -999 -999 -999 -999
2008-11-24 09:03:10 51°11.973 2°47.097 -999 -999 -999 -999
2008-11-24 09:03:20 51°11.969 2°47.052 -999 -999 -999 -999
2008-11-24 09:03:30 51°11.963 2°47.007 -999 -999 -999 -999
2008-11-24 09:03:40 51°11.958 2°46.963 -999 -999 -999 -999
2008-11-24 09:03:50 51°11.954 2°46.918 -999 -999 -999 -999
2008-11-24 09:04:00 51°11.949 2°46.874 -999 -999 -999 -999
2008-11-24 09:04:10 51°11.943 2°46.83 -999 -999 -999 -999
2008-11-24 09:04:20 51°11.937 2°46.786 -999 -999 -999 -999
2008-11-24 09:04:30 51°11.933 2°46.742 -999 -999 -999 -999
2008-11-24 09:04:40 51°11.928 2°46.697 -999 -999 -999 -999
2008-11-24 09:04:50 51°11.924 2°46.653 -999 -999 -999 -999
2008-11-24 09:05:00 51°11.919 2°46.604 -999 -999 -999 -999
2008-11-24 09:05:10 51°11.914 2°46.559 -999 -999 -999 -999
2008-11-24 09:05:20 51°11.91 2°46.519 -999 -999 -999 -999
2008-11-24 09:05:30 51°11.905 2°46.474 -999 -999 -999 -999
2008-11-24 09:05:40 51°11.9 2°46.425 -999 -999 -999 -999
2008-11-24 09:05:50 51°11.895 2°46.386 -999 -999 -999 -999
2008-11-24 09:06:00 51°11.89 2°46.341 -999 -999 -999 -999
2008-11-24 09:06:10 51°11.885 2°46.297 -999 -999 -999 -999
2008-11-24 09:06:20 51°11.879 2°46.254 -999 -999 -999 -999
2008-11-24 09:06:30 51°11.874 2°46.21 -999 -999 -999 -999
2008-11-24 09:06:40 51°11.869 2°46.167 -999 -999 -999 -999
2008-11-24 09:06:50 51°11.863 2°46.119 -999 -999 -999 -999
2008-11-24 09:07:00 51°11.858 2°46.081 -999 -999 -999 -999
2008-11-24 09:07:10 51°11.852 2°46.035 -999 -999 -999 -999
2008-11-24 09:07:20 51°11.848 2°45.996 -999 -999 -999 -999
2008-11-24 09:07:30 51°11.844 2°45.952 -999 -999 -999 -999
2008-11-24 09:07:40 51°11.839 2°45.908 -999 -999 -999 -999
2008-11-24 09:07:50 51°11.835 2°45.863 -999 -999 -999 -999
2008-11-24 09:08:00 51°11.832 2°45.818 -999 -999 -999 -999
2008-11-24 09:08:10 51°11.829 2°45.774 -999 -999 -999 -999
2008-11-24 09:08:20 51°11.826 2°45.729 -999 -999 -999 -999
2008-11-24 09:08:30 51°11.823 2°45.684 -999 -999 -999 -999
2008-11-24 09:08:40 51°11.82 2°45.638 -999 -999 -999 -999
2008-11-24 09:08:50 51°11.817 2°45.593 -999 -999 -999 -999
2008-11-24 09:09:00 51°11.813 2°45.547 -999 -999 -999 -999
2008-11-24 09:09:10 51°11.81 2°45.503 -999 -999 -999 -999
2008-11-24 09:09:20 51°11.807 2°45.458 -999 -999 -999 -999
2008-11-24 09:09:30 51°11.805 2°45.413 -999 -999 -999 -999
2008-11-24 09:09:40 51°11.803 2°45.369 -999 -999 -999 -999
2008-11-24 09:09:50 51°11.801 2°45.325 -999 -999 -999 -999
2008-11-24 09:10:00 51°11.799 2°45.28 -999 -999 -999 -999
2008-11-24 09:10:10 51°11.797 2°45.239 -999 -999 -999 -999
2008-11-24 09:10:20 51°11.795 2°45.197 -999 -999 -999 -999
2008-11-24 09:10:30 51°11.793 2°45.154 -999 -999 -999 -999
2008-11-24 09:10:40 51°11.792 2°45.111 -999 -999 -999 -999
2008-11-24 09:10:50 51°11.79 2°45.066 -999 -999 -999 -999
2008-11-24 09:11:00 51°11.788 2°45.022 -999 -999 -999 -999
2008-11-24 09:11:10 51°11.786 2°44.979 -999 -999 -999 -999
2008-11-24 09:11:20 51°11.784 2°44.936 -999 -999 -999 -999
2008-11-24 09:11:30 51°11.782 2°44.893 -999 -999 -999 -999
2008-11-24 09:11:40 51°11.781 2°44.85 -999 -999 -999 -999
2008-11-24 09:11:50 51°11.78 2°44.807 -999 -999 -999 -999
2008-11-24 09:12:00 51°11.777 2°44.763 -999 -999 -999 -999
2008-11-24 09:12:10 51°11.776 2°44.719 -999 -999 -999 -999
2008-11-24 09:12:20 51°11.773 2°44.675 -999 -999 -999 -999
2008-11-24 09:12:30 51°11.771 2°44.63 -999 -999 -999 -999
2008-11-24 09:12:40 51°11.769 2°44.585 -999 -999 -999 -999
2008-11-24 09:12:50 51°11.767 2°44.54 -999 -999 -999 -999
2008-11-24 09:13:00 51°11.765 2°44.495 -999 -999 -999 -999
2008-11-24 09:13:10 51°11.763 2°44.449 -999 -999 -999 -999
2008-11-24 09:13:20 51°11.761 2°44.404 -999 -999 -999 -999
2008-11-24 09:13:30 51°11.759 2°44.358 -999 -999 -999 -999
2008-11-24 09:13:40 51°11.756 2°44.315 -999 -999 -999 -999
2008-11-24 09:13:50 51°11.755 2°44.271 -999 -999 -999 -999
2008-11-24 09:14:00 51°11.751 2°44.229 -999 -999 -999 -999
2008-11-24 09:14:10 51°11.749 2°44.185 -999 -999 -999 -999
2008-11-24 09:14:20 51°11.747 2°44.141 -999 -999 -999 -999
2008-11-24 09:14:30 51°11.745 2°44.096 -999 -999 -999 -999
2008-11-24 09:14:40 51°11.742 2°44.052 -999 -999 -999 -999
2008-11-24 09:14:50 51°11.74 2°44.008 -999 -999 -999 -999
2008-11-24 09:15:00 51°11.737 2°43.964 -999 -999 -999 -999
2008-11-24 09:15:10 51°11.734 2°43.92 -999 -999 -999 -999
2008-11-24 09:15:20 51°11.731 2°43.878 -999 -999 -999 -999
2008-11-24 09:15:30 51°11.729 2°43.834 -999 -999 -999 -999
2008-11-24 09:15:40 51°11.727 2°43.79 -999 -999 -999 -999
2008-11-24 09:15:50 51°11.724 2°43.748 -999 -999 -999 -999
2008-11-24 09:16:00 51°11.721 2°43.706 -999 -999 -999 -999
2008-11-24 09:16:10 51°11.719 2°43.662 -999 -999 -999 -999
2008-11-24 09:16:20 51°11.716 2°43.618 -999 -999 -999 -999
2008-11-24 09:16:30 51°11.714 2°43.575 -999 -999 -999 -999
2008-11-24 09:16:40 51°11.712 2°43.53 -999 -999 -999 -999
2008-11-24 09:16:50 51°11.71 2°43.486 -999 -999 -999 -999
2008-11-24 09:17:00 51°11.708 2°43.442 -999 -999 -999 -999
2008-11-24 09:17:10 51°11.705 2°43.397 -999 -999 -999 -999
2008-11-24 09:17:20 51°11.701 2°43.353 -999 -999 -999 -999
2008-11-24 09:17:30 51°11.697 2°43.308 -999 -999 -999 -999
2008-11-24 09:17:40 51°11.692 2°43.263 -999 -999 -999 -999
2008-11-24 09:17:50 51°11.686 2°43.22 -999 -999 -999 -999
2008-11-24 09:18:00 51°11.681 2°43.175 -999 -999 -999 -999
2008-11-24 09:18:10 51°11.675 2°43.132 -999 -999 -999 -999
2008-11-24 09:18:20 51°11.671 2°43.088 -999 -999 -999 -999
2008-11-24 09:18:30 51°11.666 2°43.044 -999 -999 -999 -999
2008-11-24 09:18:40 51°11.661 2°43 -999 -999 -999 -999
2008-11-24 09:18:50 51°11.655 2°42.955 -999 -999 -999 -999
2008-11-24 09:19:00 51°11.648 2°42.912 -999 -999 -999 -999
2008-11-24 09:19:10 51°11.641 2°42.869 -999 -999 -999 -999
2008-11-24 09:19:20 51°11.634 2°42.825 -999 -999 -999 -999
2008-11-24 09:19:30 51°11.626 2°42.783 -999 -999 -999 -999
2008-11-24 09:19:40 51°11.619 2°42.74 -999 -999 -999 -999
2008-11-24 09:19:50 51°11.612 2°42.697 -999 -999 -999 -999
2008-11-24 09:20:00 51°11.604 2°42.654 -999 -999 -999 -999
2008-11-24 09:20:10 51°11.597 2°42.611 -999 -999 -999 -999
2008-11-24 09:20:20 51°11.59 2°42.567 -999 -999 -999 -999
2008-11-24 09:20:30 51°11.583 2°42.523 -999 -999 -999 -999
2008-11-24 09:20:40 51°11.573 2°42.482 -999 -999 -999 -999
2008-11-24 09:20:50 51°11.564 2°42.44 -999 -999 -999 -999
2008-11-24 09:21:00 51°11.554 2°42.397 -999 -999 -999 -999
2008-11-24 09:21:10 51°11.542 2°42.357 -999 -999 -999 -999
2008-11-24 09:21:20 51°11.532 2°42.315 -999 -999 -999 -999
2008-11-24 09:21:30 51°11.521 2°42.274 -999 -999 -999 -999
2008-11-24 09:21:40 51°11.51 2°42.232 -999 -999 -999 -999
2008-11-24 09:21:50 51°11.499 2°42.191 -999 -999 -999 -999
2008-11-24 09:22:00 51°11.484 2°42.151 -999 -999 -999 -999
2008-11-24 09:22:10 51°11.468 2°42.114 -999 -999 -999 -999
2008-11-24 09:22:20 51°11.451 2°42.077 -999 -999 -999 -999
2008-11-24 09:22:30 51°11.434 2°42.041 -999 -999 -999 -999
2008-11-24 09:22:40 51°11.416 2°42.005 -999 -999 -999 -999
2008-11-24 09:22:50 51°11.398 2°41.969 -999 -999 -999 -999
2008-11-24 09:23:00 51°11.381 2°41.932 -999 -999 -999 -999
2008-11-24 09:23:10 51°11.362 2°41.896 -999 -999 -999 -999
2008-11-24 09:23:20 51°11.345 2°41.86 -999 -999 -999 -999
2008-11-24 09:23:30 51°11.329 2°41.822 -999 -999 -999 -999
2008-11-24 09:23:40 51°11.312 2°41.785 -999 -999 -999 -999
2008-11-24 09:23:50 51°11.296 2°41.747 -999 -999 -999 -999
2008-11-24 09:24:00 51°11.28 2°41.709 -999 -999 -999 -999
2008-11-24 09:24:10 51°11.264 2°41.671 -999 -999 -999 -999
2008-11-24 09:24:20 51°11.248 2°41.633 -999 -999 -999 -999
2008-11-24 09:24:30 51°11.231 2°41.596 -999 -999 -999 -999
2008-11-24 09:24:40 51°11.215 2°41.559 -999 -999 -999 -999
2008-11-24 09:24:50 51°11.198 2°41.521 -999 -999 -999 -999
2008-11-24 09:25:00 51°11.182 2°41.483 -999 -999 -999 -999
2008-11-24 09:25:10 51°11.167 2°41.444 -999 -999 -999 -999
2008-11-24 09:25:20 51°11.151 2°41.406 -999 -999 -999 -999
2008-11-24 09:25:30 51°11.136 2°41.368 -999 -999 -999 -999
2008-11-24 09:25:40 51°11.12 2°41.329 -999 -999 -999 -999
2008-11-24 09:25:50 51°11.104 2°41.292 -999 -999 -999 -999
2008-11-24 09:26:00 51°11.088 2°41.255 -999 -999 -999 -999
2008-11-24 09:26:10 51°11.071 2°41.219 -999 -999 -999 -999
2008-11-24 09:26:20 51°11.056 2°41.181 -999 -999 -999 -999
2008-11-24 09:26:30 51°11.041 2°41.144 -999 -999 -999 -999
2008-11-24 09:26:40 51°11.025 2°41.106 -999 -999 -999 -999
2008-11-24 09:26:50 51°11.009 2°41.07 -999 -999 -999 -999
2008-11-24 09:27:00 51°10.993 2°41.033 -999 -999 -999 -999
2008-11-24 09:27:10 51°10.979 2°40.995 -999 -999 -999 -999
2008-11-24 09:27:20 51°10.962 2°40.958 -999 -999 -999 -999
2008-11-24 09:27:30 51°10.947 2°40.92 -999 -999 -999 -999
2008-11-24 09:27:40 51°10.931 2°40.883 -999 -999 -999 -999
2008-11-24 09:27:50 51°10.914 2°40.848 -999 -999 -999 -999
2008-11-24 09:28:00 51°10.899 2°40.811 -999 -999 -999 -999
2008-11-24 09:28:10 51°10.884 2°40.772 -999 -999 -999 -999
2008-11-24 09:28:20 51°10.869 2°40.734 -999 -999 -999 -999
2008-11-24 09:28:30 51°10.853 2°40.697 -999 -999 -999 -999
2008-11-24 09:28:40 51°10.837 2°40.659 -999 -999 -999 -999
2008-11-24 09:28:50 51°10.822 2°40.62 -999 -999 -999 -999
2008-11-24 09:29:00 51°10.807 2°40.581 -999 -999 -999 -999
2008-11-24 09:29:10 51°10.791 2°40.543 -999 -999 -999 -999
2008-11-24 09:29:20 51°10.776 2°40.505 -999 -999 -999 -999
2008-11-24 09:29:30 51°10.76 2°40.468 -999 -999 -999 -999
2008-11-24 09:29:40 51°10.744 2°40.432 -999 -999 -999 -999
2008-11-24 09:29:50 51°10.729 2°40.395 -999 -999 -999 -999
2008-11-24 09:30:00 51°10.713 2°40.359 -999 -999 -999 -999
2008-11-24 09:30:10 51°10.697 2°40.322 -999 -999 -999 -999
2008-11-24 09:30:20 51°10.682 2°40.283 -999 -999 -999 -999
2008-11-24 09:30:30 51°10.666 2°40.246 -999 -999 -999 -999
2008-11-24 09:30:40 51°10.65 2°40.209 -999 -999 -999 -999
2008-11-24 09:30:50 51°10.634 2°40.172 -999 -999 -999 -999
2008-11-24 09:31:00 51°10.617 2°40.134 -999 -999 -999 -999
2008-11-24 09:31:10 51°10.602 2°40.096 -999 -999 -999 -999
2008-11-24 09:31:20 51°10.585 2°40.06 -999 -999 -999 -999
2008-11-24 09:31:30 51°10.569 2°40.022 -999 -999 -999 -999
2008-11-24 09:31:40 51°10.554 2°39.983 -999 -999 -999 -999
2008-11-24 09:31:50 51°10.537 2°39.945 -999 -999 -999 -999
2008-11-24 09:32:00 51°10.52 2°39.909 -999 -999 -999 -999
2008-11-24 09:32:10 51°10.505 2°39.87 -999 -999 -999 -999
2008-11-24 09:32:20 51°10.489 2°39.832 -999 -999 -999 -999
2008-11-24 09:32:30 51°10.475 2°39.794 -999 -999 -999 -999
2008-11-24 09:32:40 51°10.461 2°39.756 -999 -999 -999 -999
2008-11-24 09:32:50 51°10.447 2°39.717 -999 -999 -999 -999
2008-11-24 09:33:00 51°10.432 2°39.678 -999 -999 -999 -999
2008-11-24 09:33:10 51°10.418 2°39.64 -999 -999 -999 -999
2008-11-24 09:33:20 51°10.404 2°39.601 -999 -999 -999 -999
2008-11-24 09:33:30 51°10.389 2°39.562 -999 -999 -999 -999
2008-11-24 09:33:40 51°10.375 2°39.524 -999 -999 -999 -999
2008-11-24 09:33:50 51°10.361 2°39.484 -999 -999 -999 -999
2008-11-24 09:34:00 51°10.346 2°39.445 -999 -999 -999 -999
2008-11-24 09:34:10 51°10.332 2°39.408 -999 -999 -999 -999
2008-11-24 09:34:20 51°10.316 2°39.37 -999 -999 -999 -999
2008-11-24 09:34:30 51°10.301 2°39.332 -999 -999 -999 -999
2008-11-24 09:34:40 51°10.287 2°39.293 -999 -999 -999 -999
2008-11-24 09:34:50 51°10.272 2°39.254 -999 -999 -999 -999
2008-11-24 09:35:00 51°10.258 2°39.215 -999 -999 -999 -999
2008-11-24 09:35:10 51°10.244 2°39.175 -999 -999 -999 -999
2008-11-24 09:35:20 51°10.23 2°39.137 -999 -999 -999 -999
2008-11-24 09:35:30 51°10.214 2°39.098 -999 -999 -999 -999
2008-11-24 09:35:40 51°10.199 2°39.059 -999 -999 -999 -999
2008-11-24 09:35:50 51°10.184 2°39.02 -999 -999 -999 -999
2008-11-24 09:36:00 51°10.169 2°38.981 -999 -999 -999 -999
2008-11-24 09:36:10 51°10.154 2°38.943 -999 -999 -999 -999
2008-11-24 09:36:20 51°10.139 2°38.904 -999 -999 -999 -999
2008-11-24 09:36:30 51°10.125 2°38.865 -999 -999 -999 -999
2008-11-24 09:36:40 51°10.111 2°38.826 -999 -999 -999 -999
2008-11-24 09:36:50 51°10.097 2°38.786 -999 -999 -999 -999
2008-11-24 09:37:00 51°10.083 2°38.747 -999 -999 -999 -999
2008-11-24 09:37:10 51°10.069 2°38.707 -999 -999 -999 -999
2008-11-24 09:37:20 51°10.055 2°38.667 -999 -999 -999 -999
2008-11-24 09:37:30 51°10.042 2°38.627 -999 -999 -999 -999
2008-11-24 09:37:40 51°10.028 2°38.588 -999 -999 -999 -999
2008-11-24 09:37:50 51°10.015 2°38.547 -999 -999 -999 -999
2008-11-24 09:38:00 51°10.002 2°38.507 -999 -999 -999 -999
2008-11-24 09:38:10 51°9.988 2°38.466 -999 -999 -999 -999
2008-11-24 09:38:20 51°9.975 2°38.425 -999 -999 -999 -999
2008-11-24 09:38:30 51°9.962 2°38.384 -999 -999 -999 -999
2008-11-24 09:38:40 51°9.948 2°38.344 -999 -999 -999 -999
2008-11-24 09:38:50 51°9.934 2°38.305 -999 -999 -999 -999
2008-11-24 09:39:00 51°9.92 2°38.266 -999 -999 -999 -999
2008-11-24 09:39:10 51°9.907 2°38.226 -999 -999 -999 -999
2008-11-24 09:39:20 51°9.894 2°38.186 -999 -999 -999 -999
2008-11-24 09:39:30 51°9.879 2°38.147 -999 -999 -999 -999
2008-11-24 09:39:40 51°9.865 2°38.108 -999 -999 -999 -999
2008-11-24 09:39:50 51°9.851 2°38.069 -999 -999 -999 -999
2008-11-24 09:40:00 51°9.836 2°38.03 -999 -999 -999 -999
2008-11-24 09:40:10 51°9.822 2°37.99 -999 -999 -999 -999
2008-11-24 09:40:20 51°9.807 2°37.952 -999 -999 -999 -999
2008-11-24 09:40:30 51°9.792 2°37.913 -999 -999 -999 -999
2008-11-24 09:40:40 51°9.777 2°37.874 -999 -999 -999 -999
2008-11-24 09:40:50 51°9.763 2°37.835 -999 -999 -999 -999
2008-11-24 09:41:00 51°9.75 2°37.795 -999 -999 -999 -999
2008-11-24 09:41:10 51°9.735 2°37.755 -999 -999 -999 -999
2008-11-24 09:41:20 51°9.721 2°37.715 -999 -999 -999 -999
2008-11-24 09:41:30 51°9.707 2°37.676 -999 -999 -999 -999
2008-11-24 09:41:40 51°9.692 2°37.636 -999 -999 -999 -999
2008-11-24 09:41:50 51°9.677 2°37.597 -999 -999 -999 -999
2008-11-24 09:42:00 51°9.663 2°37.557 -999 -999 -999 -999
2008-11-24 09:42:10 51°9.649 2°37.519 -999 -999 -999 -999
2008-11-24 09:42:20 51°9.635 2°37.48 -999 -999 -999 -999
2008-11-24 09:42:30 51°9.62 2°37.441 -999 -999 -999 -999
2008-11-24 09:42:40 51°9.605 2°37.403 -999 -999 -999 -999
2008-11-24 09:42:50 51°9.59 2°37.364 -999 -999 -999 -999
2008-11-24 09:43:00 51°9.576 2°37.325 -999 -999 -999 -999
2008-11-24 09:43:10 51°9.561 2°37.286 -999 -999 -999 -999
2008-11-24 09:43:20 51°9.546 2°37.25 -999 -999 -999 -999
2008-11-24 09:43:30 51°9.532 2°37.211 -999 -999 -999 -999
2008-11-24 09:43:40 51°9.518 2°37.173 -999 -999 -999 -999
2008-11-24 09:43:50 51°9.504 2°37.135 -999 -999 -999 -999
2008-11-24 09:44:00 51°9.49 2°37.097 -999 -999 -999 -999
2008-11-24 09:44:10 51°9.475 2°37.058 -999 -999 -999 -999
2008-11-24 09:44:20 51°9.462 2°37.021 -999 -999 -999 -999
2008-11-24 09:44:30 51°9.451 2°36.99 -999 -999 -999 -999
2008-11-24 09:44:40 51°9.441 2°36.964 -999 -999 -999 -999
2008-11-24 09:44:50 51°9.434 2°36.944 -999 -999 -999 -999
2008-11-24 09:45:00 51°9.428 2°36.927 -999 -999 -999 -999
2008-11-24 09:45:10 51°9.425 2°36.914 -999 -999 -999 -999
2008-11-24 09:45:20 51°9.422 2°36.903 -999 -999 -999 -999
2008-11-24 09:45:30 51°9.421 2°36.894 -999 -999 -999 -999
2008-11-24 09:45:40 51°9.42 2°36.888 -999 -999 -999 -999
2008-11-24 09:45:50 51°9.419 2°36.883 -999 -999 -999 -999
2008-11-24 09:46:00 51°9.418 2°36.88 -999 -999 -999 -999
2008-11-24 09:46:10 51°9.417 2°36.878 -999 -999 -999 -999
2008-11-24 09:46:20 51°9.417 2°36.876 -999 -999 -999 -999
2008-11-24 09:46:30 51°9.416 2°36.875 -999 -999 -999 -999
2008-11-24 09:46:40 51°9.415 2°36.876 -999 -999 -999 -999
2008-11-24 09:46:50 51°9.413 2°36.877 -999 -999 -999 -999
2008-11-24 09:47:00 51°9.412 2°36.878 -999 -999 -999 -999
2008-11-24 09:47:10 51°9.41 2°36.879 -999 -999 -999 -999
2008-11-24 09:47:20 51°9.408 2°36.88 -999 -999 -999 -999
2008-11-24 09:47:30 51°9.406 2°36.883 -999 -999 -999 -999
2008-11-24 09:47:40 51°9.403 2°36.884 -999 -999 -999 -999
2008-11-24 09:47:50 51°9.4 2°36.887 -999 -999 -999 -999
2008-11-24 09:48:00 51°9.396 2°36.886 -999 -999 -999 -999
2008-11-24 09:48:10 51°9.39 2°36.882 -999 -999 -999 -999
2008-11-24 09:48:20 51°9.383 2°36.876 -999 -999 -999 -999
2008-11-24 09:48:30 51°9.376 2°36.869 -999 -999 -999 -999
2008-11-24 09:48:40 51°9.37 2°36.861 -999 -999 -999 -999
2008-11-24 09:48:50 51°9.364 2°36.854 -999 -999 -999 -999
2008-11-24 09:49:00 51°9.359 2°36.846 -999 -999 -999 -999
2008-11-24 09:49:10 51°9.353 2°36.837 -999 -999 -999 -999
2008-11-24 09:49:20 51°9.348 2°36.828 -999 -999 -999 -999
2008-11-24 09:49:30 51°9.343 2°36.818 -999 -999 -999 -999
2008-11-24 09:49:40 51°9.338 2°36.808 -999 -999 -999 -999
2008-11-24 09:49:50 51°9.334 2°36.798 -999 -999 -999 -999
2008-11-24 09:50:00 51°9.33 2°36.788 -999 -999 -999 -999
2008-11-24 09:50:10 51°9.327 2°36.778 -999 -999 -999 -999
2008-11-24 09:50:20 51°9.324 2°36.768 -999 -999 -999 -999
2008-11-24 09:50:30 51°9.321 2°36.758 -999 -999 -999 -999
2008-11-24 09:50:40 51°9.319 2°36.749 -999 -999 -999 -999
2008-11-24 09:50:50 51°9.317 2°36.74 -999 -999 -999 -999
2008-11-24 09:51:00 51°9.314 2°36.732 -999 -999 -999 -999
2008-11-24 09:51:10 51°9.312 2°36.723 -999 -999 -999 -999
2008-11-24 09:51:20 51°9.31 2°36.715 -999 -999 -999 -999
2008-11-24 09:51:30 51°9.308 2°36.707 -999 -999 -999 -999
2008-11-24 09:51:40 51°9.306 2°36.699 -999 -999 -999 -999
2008-11-24 09:51:50 51°9.305 2°36.69 -999 -999 -999 -999
2008-11-24 09:52:00 51°9.303 2°36.682 -999 -999 -999 -999
2008-11-24 09:52:10 51°9.302 2°36.674 -999 -999 -999 -999
2008-11-24 09:52:20 51°9.3 2°36.666 -999 -999 -999 -999
2008-11-24 09:52:30 51°9.297 2°36.658 -999 -999 -999 -999
2008-11-24 09:52:40 51°9.295 2°36.651 -999 -999 -999 -999
2008-11-24 09:52:50 51°9.292 2°36.643 -999 -999 -999 -999
2008-11-24 09:53:00 51°9.289 2°36.635 -999 -999 -999 -999
2008-11-24 09:53:10 51°9.285 2°36.626 -999 -999 -999 -999
2008-11-24 09:53:20 51°9.281 2°36.619 -999 -999 -999 -999
2008-11-24 09:53:30 51°9.277 2°36.61 -999 -999 -999 -999
2008-11-24 09:53:40 51°9.273 2°36.602 -999 -999 -999 -999
2008-11-24 09:53:50 51°9.268 2°36.594 -999 -999 -999 -999
2008-11-24 09:54:00 51°9.264 2°36.585 -999 -999 -999 -999
2008-11-24 09:54:10 51°9.26 2°36.576 -999 -999 -999 -999
2008-11-24 09:54:20 51°9.255 2°36.569 -999 -999 -999 -999
2008-11-24 09:54:30 51°9.252 2°36.56 -999 -999 -999 -999
2008-11-24 09:54:40 51°9.247 2°36.552 -999 -999 -999 -999
2008-11-24 09:54:50 51°9.243 2°36.544 -999 -999 -999 -999
2008-11-24 09:55:00 51°9.239 2°36.536 -999 -999 -999 -999
2008-11-24 09:55:10 51°9.235 2°36.529 -999 -999 -999 -999
2008-11-24 09:55:20 51°9.232 2°36.521 -999 -999 -999 -999
2008-11-24 09:55:30 51°9.228 2°36.514 -999 -999 -999 -999
2008-11-24 09:55:40 51°9.225 2°36.508 -999 -999 -999 -999
2008-11-24 09:55:50 51°9.222 2°36.501 -999 -999 -999 -999
2008-11-24 09:56:00 51°9.218 2°36.495 -999 -999 -999 -999
2008-11-24 09:56:10 51°9.214 2°36.489 -999 -999 -999 -999
2008-11-24 09:56:20 51°9.21 2°36.483 -999 -999 -999 -999
2008-11-24 09:56:30 51°9.207 2°36.476 -999 -999 -999 -999
2008-11-24 09:56:40 51°9.203 2°36.469 -999 -999 -999 -999
2008-11-24 09:56:50 51°9.199 2°36.461 -999 -999 -999 -999
2008-11-24 09:57:00 51°9.195 2°36.453 -999 -999 -999 -999
2008-11-24 09:57:10 51°9.191 2°36.446 -999 -999 -999 -999
2008-11-24 09:57:20 51°9.186 2°36.439 -999 -999 -999 -999
2008-11-24 09:57:30 51°9.181 2°36.432 -999 -999 -999 -999
2008-11-24 09:57:40 51°9.177 2°36.425 -999 -999 -999 -999
2008-11-24 09:57:50 51°9.173 2°36.417 -999 -999 -999 -999
2008-11-24 09:58:00 51°9.168 2°36.41 -999 -999 -999 -999
2008-11-24 09:58:10 51°9.164 2°36.403 -999 -999 -999 -999
2008-11-24 09:58:20 51°9.16 2°36.396 -999 -999 -999 -999
2008-11-24 09:58:30 51°9.156 2°36.389 -999 -999 -999 -999
2008-11-24 09:58:40 51°9.152 2°36.381 -999 -999 -999 -999
2008-11-24 09:58:50 51°9.148 2°36.373 -999 -999 -999 -999
2008-11-24 09:59:00 51°9.144 2°36.364 -999 -999 -999 -999
2008-11-24 09:59:10 51°9.14 2°36.356 -999 -999 -999 -999
2008-11-24 09:59:20 51°9.136 2°36.347 -999 -999 -999 -999
2008-11-24 09:59:30 51°9.132 2°36.339 -999 -999 -999 -999
2008-11-24 09:59:40 51°9.128 2°36.331 -999 -999 -999 -999
2008-11-24 09:59:50 51°9.125 2°36.323 -999 -999 -999 -999
2008-11-24 10:00:00 51°9.122 2°36.316 -999 -999 -999 -999
2008-11-24 10:00:10 51°9.118 2°36.308 -999 -999 -999 -999
2008-11-24 10:00:20 51°9.115 2°36.299 -999 -999 -999 -999
2008-11-24 10:00:30 51°9.113 2°36.291 -999 -999 -999 -999
2008-11-24 10:00:40 51°9.11 2°36.282 -999 -999 -999 -999
2008-11-24 10:00:50 51°9.107 2°36.273 -999 -999 -999 -999
2008-11-24 10:01:00 51°9.105 2°36.264 -999 -999 -999 -999
2008-11-24 10:01:10 51°9.102 2°36.255 -999 -999 -999 -999
2008-11-24 10:01:20 51°9.1 2°36.245 -999 -999 -999 -999
2008-11-24 10:01:30 51°9.098 2°36.235 -999 -999 -999 -999
2008-11-24 10:01:40 51°9.097 2°36.225 -999 -999 -999 -999
2008-11-24 10:01:50 51°9.095 2°36.215 -999 -999 -999 -999
2008-11-24 10:02:00 51°9.093 2°36.205 -999 -999 -999 -999
2008-11-24 10:02:10 51°9.091 2°36.196 -999 -999 -999 -999
2008-11-24 10:02:20 51°9.088 2°36.187 -999 -999 -999 -999
2008-11-24 10:02:30 51°9.087 2°36.177 -999 -999 -999 -999
2008-11-24 10:02:40 51°9.085 2°36.169 -999 -999 -999 -999
2008-11-24 10:02:50 51°9.082 2°36.161 -999 -999 -999 -999
2008-11-24 10:03:00 51°9.08 2°36.153 -999 -999 -999 -999
2008-11-24 10:03:10 51°9.078 2°36.145 -999 -999 -999 -999
2008-11-24 10:03:20 51°9.076 2°36.137 -999 -999 -999 -999
2008-11-24 10:03:30 51°9.074 2°36.128 -999 -999 -999 -999
2008-11-24 10:03:40 51°9.071 2°36.12 -999 -999 -999 -999
2008-11-24 10:03:50 51°9.07 2°36.111 -999 -999 -999 -999
2008-11-24 10:04:00 51°9.067 2°36.103 -999 -999 -999 -999
2008-11-24 10:04:10 51°9.066 2°36.094 -999 -999 -999 -999
2008-11-24 10:04:20 51°9.064 2°36.085 -999 -999 -999 -999
2008-11-24 10:04:30 51°9.062 2°36.076 -999 -999 -999 -999
2008-11-24 10:04:40 51°9.06 2°36.068 -999 -999 -999 -999
2008-11-24 10:04:50 51°9.058 2°36.059 -999 -999 -999 -999
2008-11-24 10:05:00 51°9.056 2°36.05 -999 -999 -999 -999
2008-11-24 10:05:10 51°9.054 2°36.041 -999 -999 -999 -999
2008-11-24 10:05:20 51°9.052 2°36.032 -999 -999 -999 -999
2008-11-24 10:05:30 51°9.051 2°36.023 -999 -999 -999 -999
2008-11-24 10:05:40 51°9.049 2°36.013 -999 -999 -999 -999
2008-11-24 10:05:50 51°9.047 2°36.004 -999 -999 -999 -999
2008-11-24 10:06:00 51°9.045 2°35.994 -999 -999 -999 -999
2008-11-24 10:06:10 51°9.042 2°35.985 -999 -999 -999 -999
2008-11-24 10:06:20 51°9.04 2°35.975 -999 -999 -999 -999
2008-11-24 10:06:30 51°9.037 2°35.965 -999 -999 -999 -999
2008-11-24 10:06:40 51°9.035 2°35.955 -999 -999 -999 -999
2008-11-24 10:06:50 51°9.033 2°35.946 -999 -999 -999 -999
2008-11-24 10:07:00 51°9.03 2°35.937 -999 -999 -999 -999
2008-11-24 10:07:10 51°9.028 2°35.928 -999 -999 -999 -999
2008-11-24 10:07:20 51°9.026 2°35.919 -999 -999 -999 -999
2008-11-24 10:07:30 51°9.024 2°35.91 -999 -999 -999 -999
2008-11-24 10:07:40 51°9.021 2°35.901 -999 -999 -999 -999
2008-11-24 10:07:50 51°9.019 2°35.891 -999 -999 -999 -999
2008-11-24 10:08:00 51°9.017 2°35.882 -999 -999 -999 -999
2008-11-24 10:08:10 51°9.014 2°35.874 -999 -999 -999 -999
2008-11-24 10:08:20 51°9.011 2°35.865 -999 -999 -999 -999
2008-11-24 10:08:30 51°9.009 2°35.855 -999 -999 -999 -999
2008-11-24 10:08:40 51°9.007 2°35.846 -999 -999 -999 -999
2008-11-24 10:08:50 51°9.004 2°35.837 -999 -999 -999 -999
2008-11-24 10:09:00 51°9.003 2°35.827 -999 -999 -999 -999
2008-11-24 10:09:10 51°9 2°35.818 -999 -999 -999 -999
2008-11-24 10:09:20 51°8.998 2°35.808 -999 -999 -999 -999
2008-11-24 10:09:30 51°8.997 2°35.799 -999 -999 -999 -999
2008-11-24 10:09:40 51°8.995 2°35.789 -999 -999 -999 -999
2008-11-24 10:09:50 51°8.992 2°35.78 -999 -999 -999 -999
2008-11-24 10:10:00 51°8.99 2°35.771 -999 -999 -999 -999
2008-11-24 10:10:10 51°8.987 2°35.762 -999 -999 -999 -999
2008-11-24 10:10:20 51°8.985 2°35.752 -999 -999 -999 -999
2008-11-24 10:10:30 51°8.983 2°35.743 -999 -999 -999 -999
2008-11-24 10:10:40 51°8.981 2°35.733 -999 -999 -999 -999
2008-11-24 10:10:50 51°8.978 2°35.724 -999 -999 -999 -999
2008-11-24 10:11:00 51°8.975 2°35.715 -999 -999 -999 -999
2008-11-24 10:11:10 51°8.973 2°35.706 -999 -999 -999 -999
2008-11-24 10:11:20 51°8.97 2°35.697 -999 -999 -999 -999
2008-11-24 10:11:30 51°8.968 2°35.688 -999 -999 -999 -999
2008-11-24 10:11:40 51°8.966 2°35.678 -999 -999 -999 -999
2008-11-24 10:11:50 51°8.963 2°35.669 -999 -999 -999 -999
2008-11-24 10:12:00 51°8.961 2°35.66 -999 -999 -999 -999
2008-11-24 10:12:10 51°8.958 2°35.65 -999 -999 -999 -999
2008-11-24 10:12:20 51°8.956 2°35.641 -999 -999 -999 -999
2008-11-24 10:12:30 51°8.953 2°35.632 -999 -999 -999 -999
2008-11-24 10:12:40 51°8.951 2°35.623 -999 -999 -999 -999
2008-11-24 10:12:50 51°8.948 2°35.615 -999 -999 -999 -999
2008-11-24 10:13:00 51°8.945 2°35.606 -999 -999 -999 -999
2008-11-24 10:13:10 51°8.943 2°35.597 -999 -999 -999 -999
2008-11-24 10:13:20 51°8.94 2°35.587 -999 -999 -999 -999
2008-11-24 10:13:30 51°8.938 2°35.577 -999 -999 -999 -999
2008-11-24 10:13:40 51°8.936 2°35.568 -999 -999 -999 -999
2008-11-24 10:13:50 51°8.933 2°35.559 -999 -999 -999 -999
2008-11-24 10:14:00 51°8.931 2°35.55 -999 -999 -999 -999
2008-11-24 10:14:10 51°8.929 2°35.541 -999 -999 -999 -999
2008-11-24 10:14:20 51°8.927 2°35.532 -999 -999 -999 -999
2008-11-24 10:14:30 51°8.924 2°35.523 -999 -999 -999 -999
2008-11-24 10:14:40 51°8.921 2°35.515 -999 -999 -999 -999
2008-11-24 10:14:50 51°8.919 2°35.507 -999 -999 -999 -999
2008-11-24 10:15:00 51°8.916 2°35.499 -999 -999 -999 -999
2008-11-24 10:15:10 51°8.914 2°35.491 -999 -999 -999 -999
2008-11-24 10:15:20 51°8.911 2°35.482 -999 -999 -999 -999
2008-11-24 10:15:30 51°8.908 2°35.474 -999 -999 -999 -999
2008-11-24 10:15:40 51°8.906 2°35.465 -999 -999 -999 -999
2008-11-24 10:15:50 51°8.903 2°35.457 -999 -999 -999 -999
2008-11-24 10:16:00 51°8.9 2°35.449 -999 -999 -999 -999
2008-11-24 10:16:10 51°8.898 2°35.44 -999 -999 -999 -999
2008-11-24 10:16:20 51°8.895 2°35.432 -999 -999 -999 -999
2008-11-24 10:16:30 51°8.892 2°35.423 -999 -999 -999 -999
2008-11-24 10:16:40 51°8.89 2°35.414 -999 -999 -999 -999
2008-11-24 10:16:50 51°8.887 2°35.405 -999 -999 -999 -999
2008-11-24 10:17:00 51°8.884 2°35.397 -999 -999 -999 -999
2008-11-24 10:17:10 51°8.882 2°35.388 -999 -999 -999 -999
2008-11-24 10:17:20 51°8.879 2°35.379 -999 -999 -999 -999
2008-11-24 10:17:30 51°8.877 2°35.37 -999 -999 -999 -999
2008-11-24 10:17:40 51°8.874 2°35.361 -999 -999 -999 -999
2008-11-24 10:17:50 51°8.872 2°35.352 -999 -999 -999 -999
2008-11-24 10:18:00 51°8.87 2°35.343 -999 -999 -999 -999
2008-11-24 10:18:10 51°8.867 2°35.334 -999 -999 -999 -999
2008-11-24 10:18:20 51°8.865 2°35.325 -999 -999 -999 -999
2008-11-24 10:18:30 51°8.862 2°35.315 -999 -999 -999 -999
2008-11-24 10:18:40 51°8.86 2°35.307 -999 -999 -999 -999
2008-11-24 10:18:50 51°8.858 2°35.298 -999 -999 -999 -999
2008-11-24 10:19:00 51°8.856 2°35.289 -999 -999 -999 -999
2008-11-24 10:19:10 51°8.853 2°35.281 -999 -999 -999 -999
2008-11-24 10:19:20 51°8.851 2°35.271 -999 -999 -999 -999
2008-11-24 10:19:30 51°8.848 2°35.262 -999 -999 -999 -999
2008-11-24 10:19:40 51°8.846 2°35.253 -999 -999 -999 -999
2008-11-24 10:19:50 51°8.844 2°35.244 -999 -999 -999 -999
2008-11-24 10:20:00 51°8.842 2°35.234 -999 -999 -999 -999
2008-11-24 10:20:10 51°8.84 2°35.225 -999 -999 -999 -999
2008-11-24 10:20:20 51°8.838 2°35.216 -999 -999 -999 -999
2008-11-24 10:20:30 51°8.836 2°35.206 -999 -999 -999 -999
2008-11-24 10:20:40 51°8.835 2°35.196 -999 -999 -999 -999
2008-11-24 10:20:50 51°8.833 2°35.187 -999 -999 -999 -999
2008-11-24 10:21:00 51°8.832 2°35.178 -999 -999 -999 -999
2008-11-24 10:21:10 51°8.83 2°35.169 -999 -999 -999 -999
2008-11-24 10:21:20 51°8.829 2°35.16 -999 -999 -999 -999
2008-11-24 10:21:30 51°8.829 2°35.153 -999 -999 -999 -999
2008-11-24 10:21:40 51°8.828 2°35.146 -999 -999 -999 -999
2008-11-24 10:21:50 51°8.828 2°35.142 -999 -999 -999 -999
2008-11-24 10:22:00 51°8.827 2°35.138 -999 -999 -999 -999
2008-11-24 10:22:10 51°8.827 2°35.134 -999 -999 -999 -999
2008-11-24 10:22:20 51°8.826 2°35.13 -999 -999 -999 -999
2008-11-24 10:22:30 51°8.826 2°35.127 -999 -999 -999 -999
2008-11-24 10:22:40 51°8.826 2°35.124 -999 -999 -999 -999
2008-11-24 10:22:50 51°8.826 2°35.121 -999 -999 -999 -999
2008-11-24 10:23:00 51°8.825 2°35.12 -999 -999 -999 -999
2008-11-24 10:23:10 51°8.825 2°35.119 -999 -999 -999 -999
2008-11-24 10:23:20 51°8.825 2°35.119 -999 -999 -999 -999
2008-11-24 10:23:30 51°8.825 2°35.12 -999 -999 -999 -999
2008-11-24 10:23:40 51°8.825 2°35.121 -999 -999 -999 -999
2008-11-24 10:23:50 51°8.825 2°35.123 -999 -999 -999 -999
2008-11-24 10:24:00 51°8.825 2°35.124 -999 -999 -999 -999
2008-11-24 10:24:10 51°8.825 2°35.127 -999 -999 -999 -999
2008-11-24 10:24:20 51°8.824 2°35.129 -999 -999 -999 -999
2008-11-24 10:24:30 51°8.824 2°35.132 -999 -999 -999 -999
2008-11-24 10:24:40 51°8.823 2°35.135 -999 -999 -999 -999
2008-11-24 10:24:50 51°8.822 2°35.137 -999 -999 -999 -999
2008-11-24 10:25:00 51°8.821 2°35.141 -999 -999 -999 -999
2008-11-24 10:25:10 51°8.82 2°35.144 -999 -999 -999 -999
2008-11-24 10:25:20 51°8.818 2°35.148 -999 -999 -999 -999
2008-11-24 10:25:30 51°8.817 2°35.152 -999 -999 -999 -999
2008-11-24 10:25:40 51°8.816 2°35.155 -999 -999 -999 -999
2008-11-24 10:25:50 51°8.815 2°35.159 -999 -999 -999 -999
2008-11-24 10:26:00 51°8.813 2°35.164 -999 -999 -999 -999
2008-11-24 10:26:10 51°8.812 2°35.169 -999 -999 -999 -999
2008-11-24 10:26:20 51°8.81 2°35.173 -999 -999 -999 -999
2008-11-24 10:26:30 51°8.809 2°35.177 -999 -999 -999 -999
2008-11-24 10:26:40 51°8.807 2°35.182 -999 -999 -999 -999
2008-11-24 10:26:50 51°8.806 2°35.186 -999 -999 -999 -999
2008-11-24 10:27:00 51°8.806 2°35.185 -999 -999 -999 -999
2008-11-24 10:27:10 51°8.808 2°35.179 -999 -999 -999 -999
2008-11-24 10:27:20 51°8.814 2°35.169 -999 -999 -999 -999
2008-11-24 10:27:30 51°8.821 2°35.161 -999 -999 -999 -999
2008-11-24 10:27:40 51°8.831 2°35.155 -999 -999 -999 -999
2008-11-24 10:27:50 51°8.842 2°35.153 -999 -999 -999 -999
2008-11-24 10:28:00 51°8.855 2°35.156 -999 -999 -999 -999
2008-11-24 10:28:10 51°8.867 2°35.163 -999 -999 -999 -999
2008-11-24 10:28:20 51°8.878 2°35.176 -999 -999 -999 -999
2008-11-24 10:28:30 51°8.888 2°35.193 -999 -999 -999 -999
2008-11-24 10:28:40 51°8.897 2°35.218 -999 -999 -999 -999
2008-11-24 10:28:50 51°8.905 2°35.24 -999 -999 -999 -999
2008-11-24 10:29:00 51°8.916 2°35.269 -999 -999 -999 -999
2008-11-24 10:29:10 51°8.928 2°35.298 -999 -999 -999 -999
2008-11-24 10:29:20 51°8.942 2°35.332 -999 -999 -999 -999
2008-11-24 10:29:30 51°8.955 2°35.36 -999 -999 -999 -999
2008-11-24 10:29:40 51°8.968 2°35.393 -999 -999 -999 -999
2008-11-24 10:29:50 51°8.983 2°35.429 -999 -999 -999 -999
2008-11-24 10:30:00 51°8.996 2°35.46 -999 -999 -999 -999
2008-11-24 10:30:10 51°9.012 2°35.496 -999 -999 -999 -999
2008-11-24 10:30:20 51°9.027 2°35.533 -999 -999 -999 -999
2008-11-24 10:30:30 51°9.044 2°35.569 -999 -999 -999 -999
2008-11-24 10:30:40 51°9.062 2°35.605 -999 -999 -999 -999
2008-11-24 10:30:50 51°9.08 2°35.643 -999 -999 -999 -999
2008-11-24 10:31:00 51°9.098 2°35.685 -999 -999 -999 -999
2008-11-24 10:31:10 51°9.117 2°35.726 -999 -999 -999 -999
2008-11-24 10:31:20 51°9.134 2°35.771 -999 -999 -999 -999
2008-11-24 10:31:30 51°9.153 2°35.817 -999 -999 -999 -999
2008-11-24 10:31:40 51°9.173 2°35.869 -999 -999 -999 -999
2008-11-24 10:31:50 51°9.19 2°35.913 -999 -999 -999 -999
2008-11-24 10:32:00 51°9.209 2°35.961 -999 -999 -999 -999
2008-11-24 10:32:10 51°9.228 2°36.009 -999 -999 -999 -999
2008-11-24 10:32:20 51°9.248 2°36.063 -999 -999 -999 -999
2008-11-24 10:32:30 51°9.265 2°36.107 -999 -999 -999 -999
2008-11-24 10:32:40 51°9.282 2°36.157 -999 -999 -999 -999
2008-11-24 10:32:50 51°9.302 2°36.211 -999 -999 -999 -999
2008-11-24 10:33:00 51°9.32 2°36.261 -999 -999 -999 -999
2008-11-24 10:33:10 51°9.335 2°36.306 -999 -999 -999 -999
2008-11-24 10:33:20 51°9.353 2°36.356 -999 -999 -999 -999
2008-11-24 10:33:30 51°9.372 2°36.41 -999 -999 -999 -999
2008-11-24 10:33:40 51°9.389 2°36.455 -999 -999 -999 -999
2008-11-24 10:33:50 51°9.404 2°36.499 -999 -999 -999 -999
2008-11-24 10:34:00 51°9.422 2°36.549 -999 -999 -999 -999
2008-11-24 10:34:10 51°9.441 2°36.604 -999 -999 -999 -999
2008-11-24 10:34:20 51°9.459 2°36.654 -999 -999 -999 -999
2008-11-24 10:34:30 51°9.479 2°36.703 -999 -999 -999 -999
2008-11-24 10:34:40 51°9.495 2°36.747 -999 -999 -999 -999
2008-11-24 10:34:50 51°9.514 2°36.802 -999 -999 -999 -999
2008-11-24 10:35:00 51°9.531 2°36.847 -999 -999 -999 -999
2008-11-24 10:35:10 51°9.549 2°36.896 -999 -999 -999 -999
2008-11-24 10:35:20 51°9.568 2°36.951 -999 -999 -999 -999
2008-11-24 10:35:30 51°9.586 2°37.001 -999 -999 -999 -999
2008-11-24 10:35:40 51°9.606 2°37.055 -999 -999 -999 -999
2008-11-24 10:35:50 51°9.62 2°37.095 -999 -999 -999 -999
2008-11-24 10:36:00 51°9.639 2°37.15 -999 -999 -999 -999
2008-11-24 10:36:10 51°9.659 2°37.205 -999 -999 -999 -999
2008-11-24 10:36:20 51°9.674 2°37.243 -999 -999 -999 -999
2008-11-24 10:36:30 51°9.692 2°37.298 -999 -999 -999 -999
2008-11-24 10:36:40 51°9.71 2°37.347 -999 -999 -999 -999
2008-11-24 10:36:50 51°9.728 2°37.397 -999 -999 -999 -999
2008-11-24 10:37:00 51°9.744 2°37.441 -999 -999 -999 -999
2008-11-24 10:37:10 51°9.764 2°37.495 -999 -999 -999 -999
2008-11-24 10:37:20 51°9.784 2°37.549 -999 -999 -999 -999
2008-11-24 10:37:30 51°9.8 2°37.593 -999 -999 -999 -999
2008-11-24 10:37:40 51°9.816 2°37.638 -999 -999 -999 -999
2008-11-24 10:37:50 51°9.835 2°37.692 -999 -999 -999 -999
2008-11-24 10:38:00 51°9.855 2°37.746 -999 -999 -999 -999
2008-11-24 10:38:10 51°9.871 2°37.789 -999 -999 -999 -999
2008-11-24 10:38:20 51°9.89 2°37.843 -999 -999 -999 -999
2008-11-24 10:38:30 51°9.906 2°37.887 -999 -999 -999 -999
2008-11-24 10:38:40 51°9.924 2°37.935 -999 -999 -999 -999
2008-11-24 10:38:50 51°9.941 2°37.985 -999 -999 -999 -999
2008-11-24 10:39:00 51°9.959 2°38.035 -999 -999 -999 -999
2008-11-24 10:39:10 51°9.976 2°38.078 -999 -999 -999 -999
2008-11-24 10:39:20 51°9.994 2°38.127 -999 -999 -999 -999
2008-11-24 10:39:30 51°10.013 2°38.181 -999 -999 -999 -999
2008-11-24 10:39:40 51°10.031 2°38.23 -999 -999 -999 -999
2008-11-24 10:39:50 51°10.049 2°38.279 -999 -999 -999 -999
2008-11-24 10:40:00 51°10.067 2°38.328 -999 -999 -999 -999
2008-11-24 10:40:10 51°10.085 2°38.377 -999 -999 -999 -999
2008-11-24 10:40:20 51°10.103 2°38.426 -999 -999 -999 -999
2008-11-24 10:40:30 51°10.121 2°38.473 -999 -999 -999 -999
2008-11-24 10:40:40 51°10.139 2°38.52 -999 -999 -999 -999
2008-11-24 10:40:50 51°10.157 2°38.569 -999 -999 -999 -999
2008-11-24 10:41:00 51°10.173 2°38.612 -999 -999 -999 -999
2008-11-24 10:41:10 51°10.192 2°38.666 -999 -999 -999 -999
2008-11-24 10:41:20 51°10.21 2°38.715 -999 -999 -999 -999
2008-11-24 10:41:30 51°10.228 2°38.763 -999 -999 -999 -999
2008-11-24 10:41:40 51°10.244 2°38.807 -999 -999 -999 -999
2008-11-24 10:41:50 51°10.263 2°38.859 -999 -999 -999 -999
2008-11-24 10:42:00 51°10.281 2°38.907 -999 -999 -999 -999
2008-11-24 10:42:10 51°10.298 2°38.957 -999 -999 -999 -999
2008-11-24 10:42:20 51°10.316 2°39.005 -999 -999 -999 -999
2008-11-24 10:42:30 51°10.333 2°39.054 -999 -999 -999 -999
2008-11-24 10:42:40 51°10.35 2°39.102 -999 -999 -999 -999
2008-11-24 10:42:50 51°10.368 2°39.15 -999 -999 -999 -999
2008-11-24 10:43:00 51°10.385 2°39.2 -999 -999 -999 -999
2008-11-24 10:43:10 51°10.402 2°39.249 -999 -999 -999 -999
2008-11-24 10:43:20 51°10.418 2°39.293 -999 -999 -999 -999
2008-11-24 10:43:30 51°10.437 2°39.346 -999 -999 -999 -999
2008-11-24 10:43:40 51°10.453 2°39.395 -999 -999 -999 -999
2008-11-24 10:43:50 51°10.469 2°39.438 -999 -999 -999 -999
2008-11-24 10:44:00 51°10.488 2°39.491 -999 -999 -999 -999
2008-11-24 10:44:10 51°10.505 2°39.539 -999 -999 -999 -999
2008-11-24 10:44:20 51°10.521 2°39.582 -999 -999 -999 -999
2008-11-24 10:44:30 51°10.54 2°39.636 -999 -999 -999 -999
2008-11-24 10:44:40 51°10.558 2°39.684 -999 -999 -999 -999
2008-11-24 10:44:50 51°10.576 2°39.732 -999 -999 -999 -999
2008-11-24 10:45:00 51°10.594 2°39.78 -999 -999 -999 -999
2008-11-24 10:45:10 51°10.613 2°39.835 -999 -999 -999 -999
2008-11-24 10:45:20 51°10.629 2°39.879 -999 -999 -999 -999
2008-11-24 10:45:30 51°10.646 2°39.927 -999 -999 -999 -999
2008-11-24 10:45:40 51°10.663 2°39.976 -999 -999 -999 -999
2008-11-24 10:45:50 51°10.68 2°40.018 -999 -999 -999 -999
2008-11-24 10:46:00 51°10.699 2°40.072 -999 -999 -999 -999
2008-11-24 10:46:10 51°10.716 2°40.122 -999 -999 -999 -999
2008-11-24 10:46:20 51°10.734 2°40.17 -999 -999 -999 -999
2008-11-24 10:46:30 51°10.752 2°40.218 -999 -999 -999 -999
2008-11-24 10:46:40 51°10.771 2°40.266 -999 -999 -999 -999
2008-11-24 10:46:50 51°10.789 2°40.314 -999 -999 -999 -999
2008-11-24 10:47:00 51°10.807 2°40.363 -999 -999 -999 -999
2008-11-24 10:47:10 51°10.825 2°40.412 -999 -999 -999 -999
2008-11-24 10:47:20 51°10.842 2°40.462 -999 -999 -999 -999
2008-11-24 10:47:30 51°10.86 2°40.511 -999 -999 -999 -999
2008-11-24 10:47:40 51°10.878 2°40.56 -999 -999 -999 -999
2008-11-24 10:47:50 51°10.895 2°40.61 -999 -999 -999 -999
2008-11-24 10:48:00 51°10.913 2°40.658 -999 -999 -999 -999
2008-11-24 10:48:10 51°10.929 2°40.702 -999 -999 -999 -999
2008-11-24 10:48:20 51°10.948 2°40.755 -999 -999 -999 -999
2008-11-24 10:48:30 51°10.971 2°40.804 -999 -999 -999 -999
2008-11-24 10:48:40 51°10.99 2°40.844 -999 -999 -999 -999
2008-11-24 10:48:50 51°11.011 2°40.887 -999 -999 -999 -999
2008-11-24 10:49:00 51°11.034 2°40.929 -999 -999 -999 -999
2008-11-24 10:49:10 51°11.058 2°40.969 -999 -999 -999 -999
2008-11-24 10:49:20 51°11.083 2°41.008 -999 -999 -999 -999
2008-11-24 10:49:30 51°11.107 2°41.049 -999 -999 -999 -999
2008-11-24 10:49:40 51°11.133 2°41.088 -999 -999 -999 -999
2008-11-24 10:49:50 51°11.157 2°41.127 -999 -999 -999 -999
2008-11-24 10:50:00 51°11.183 2°41.167 -999 -999 -999 -999
2008-11-24 10:50:10 51°11.209 2°41.211 -999 -999 -999 -999
2008-11-24 10:50:20 51°11.232 2°41.247 -999 -999 -999 -999
2008-11-24 10:50:30 51°11.256 2°41.287 -999 -999 -999 -999
2008-11-24 10:50:40 51°11.281 2°41.327 -999 -999 -999 -999
2008-11-24 10:50:50 51°11.305 2°41.367 -999 -999 -999 -999
2008-11-24 10:51:00 51°11.33 2°41.407 -999 -999 -999 -999
2008-11-24 10:51:10 51°11.355 2°41.447 -999 -999 -999 -999
2008-11-24 10:51:20 51°11.379 2°41.487 -999 -999 -999 -999
2008-11-24 10:51:30 51°11.402 2°41.528 -999 -999 -999 -999
2008-11-24 10:51:40 51°11.426 2°41.567 -999 -999 -999 -999
2008-11-24 10:51:50 51°11.45 2°41.607 -999 -999 -999 -999
2008-11-24 10:52:00 51°11.474 2°41.649 -999 -999 -999 -999
2008-11-24 10:52:10 51°11.497 2°41.69 -999 -999 -999 -999
2008-11-24 10:52:20 51°11.52 2°41.732 -999 -999 -999 -999
2008-11-24 10:52:30 51°11.542 2°41.774 -999 -999 -999 -999
2008-11-24 10:52:40 51°11.565 2°41.816 -999 -999 -999 -999
2008-11-24 10:52:50 51°11.588 2°41.857 -999 -999 -999 -999
2008-11-24 10:53:00 51°11.609 2°41.9 -999 -999 -999 -999
2008-11-24 10:53:10 51°11.631 2°41.942 -999 -999 -999 -999
2008-11-24 10:53:20 51°11.652 2°41.985 -999 -999 -999 -999
2008-11-24 10:53:30 51°11.674 2°42.027 -999 -999 -999 -999
2008-11-24 10:53:40 51°11.696 2°42.069 -999 -999 -999 -999
2008-11-24 10:53:50 51°11.718 2°42.111 -999 -999 -999 -999
2008-11-24 10:54:00 51°11.739 2°42.153 -999 -999 -999 -999
2008-11-24 10:54:10 51°11.76 2°42.195 -999 -999 -999 -999
2008-11-24 10:54:20 51°11.782 2°42.238 -999 -999 -999 -999
2008-11-24 10:54:30 51°11.804 2°42.28 -999 -999 -999 -999
2008-11-24 10:54:40 51°11.826 2°42.322 -999 -999 -999 -999
2008-11-24 10:54:50 51°11.848 2°42.365 -999 -999 -999 -999
2008-11-24 10:55:00 51°11.87 2°42.407 -999 -999 -999 -999
2008-11-24 10:55:10 51°11.892 2°42.45 -999 -999 -999 -999
2008-11-24 10:55:20 51°11.917 2°42.496 -999 -999 -999 -999
2008-11-24 10:55:30 51°11.936 2°42.534 -999 -999 -999 -999
2008-11-24 10:55:40 51°11.958 2°42.578 -999 -999 -999 -999
2008-11-24 10:55:50 51°11.979 2°42.619 -999 -999 -999 -999
2008-11-24 10:56:00 51°12 2°42.662 -999 -999 -999 -999
2008-11-24 10:56:10 51°12.022 2°42.705 -999 -999 -999 -999
2008-11-24 10:56:20 51°12.043 2°42.747 -999 -999 -999 -999
2008-11-24 10:56:30 51°12.065 2°42.79 -999 -999 -999 -999
2008-11-24 10:56:40 51°12.088 2°42.832 -999 -999 -999 -999
2008-11-24 10:56:50 51°12.109 2°42.876 -999 -999 -999 -999
2008-11-24 10:57:00 51°12.131 2°42.918 -999 -999 -999 -999
2008-11-24 10:57:10 51°12.153 2°42.961 -999 -999 -999 -999
2008-11-24 10:57:20 51°12.176 2°43.004 -999 -999 -999 -999
2008-11-24 10:57:30 51°12.197 2°43.047 -999 -999 -999 -999
2008-11-24 10:57:40 51°12.219 2°43.089 -999 -999 -999 -999
2008-11-24 10:57:50 51°12.242 2°43.136 -999 -999 -999 -999
2008-11-24 10:58:00 51°12.262 2°43.174 -999 -999 -999 -999
2008-11-24 10:58:10 51°12.284 2°43.217 -999 -999 -999 -999
2008-11-24 10:58:20 51°12.305 2°43.26 -999 -999 -999 -999
2008-11-24 10:58:30 51°12.326 2°43.304 -999 -999 -999 -999
2008-11-24 10:58:40 51°12.347 2°43.346 -999 -999 -999 -999
2008-11-24 10:58:50 51°12.37 2°43.392 -999 -999 -999 -999
2008-11-24 10:59:00 51°12.389 2°43.429 -999 -999 -999 -999
2008-11-24 10:59:10 51°12.412 2°43.471 -999 -999 -999 -999
2008-11-24 10:59:20 51°12.434 2°43.513 -999 -999 -999 -999
2008-11-24 10:59:30 51°12.456 2°43.556 -999 -999 -999 -999
2008-11-24 10:59:40 51°12.478 2°43.598 -999 -999 -999 -999
2008-11-24 10:59:50 51°12.501 2°43.641 -999 -999 -999 -999
2008-11-24 11:00:00 51°12.523 2°43.684 -999 -999 -999 -999
2008-11-24 11:00:10 51°12.545 2°43.727 -999 -999 -999 -999
2008-11-24 11:00:20 51°12.567 2°43.77 -999 -999 -999 -999
2008-11-24 11:00:30 51°12.589 2°43.813 -999 -999 -999 -999
2008-11-24 11:00:40 51°12.612 2°43.855 -999 -999 -999 -999
2008-11-24 11:00:50 51°12.636 2°43.901 -999 -999 -999 -999
2008-11-24 11:01:00 51°12.657 2°43.944 -999 -999 -999 -999
2008-11-24 11:01:10 51°12.673 2°43.982 -999 -999 -999 -999
2008-11-24 11:01:20 51°12.694 2°44.024 -999 -999 -999 -999
2008-11-24 11:01:30 51°12.715 2°44.065 -999 -999 -999 -999
2008-11-24 11:01:40 51°12.737 2°44.107 -999 -999 -999 -999
2008-11-24 11:01:50 51°12.758 2°44.15 -999 -999 -999 -999
2008-11-24 11:02:00 51°12.779 2°44.192 -999 -999 -999 -999
2008-11-24 11:02:10 51°12.803 2°44.238 -999 -999 -999 -999
2008-11-24 11:02:20 51°12.825 2°44.279 -999 -999 -999 -999
2008-11-24 11:02:30 51°12.846 2°44.321 -999 -999 -999 -999